createdAt,value
2023-10-10T00:01:08.650Z,100.00
2023-10-10T00:03:41.823Z,100.00
2023-10-10T00:06:15.180Z,100.00
2023-10-10T00:08:42.760Z,100.00
2023-10-10T00:11:11.424Z,100.00
2023-10-10T00:13:44.328Z,100.00
2023-10-10T00:16:27.272Z,100.00
2023-10-10T00:18:57.611Z,100.00
2023-10-10T00:21:25.035Z,100.00
2023-10-10T00:23:54.432Z,100.00
2023-10-10T00:26:27.325Z,100.00
2023-10-10T00:28:57.308Z,100.00
2023-10-10T00:31:26.833Z,100.00
2023-10-10T00:33:54.448Z,100.00
2023-10-10T00:36:23.123Z,100.00
2023-10-10T00:38:59.906Z,100.00
2023-10-10T00:41:28.096Z,100.00
2023-10-10T00:43:55.197Z,100.00
2023-10-10T00:46:29.522Z,100.00
2023-10-10T00:49:01.192Z,100.00
2023-10-10T00:51:30.987Z,100.00
2023-10-10T00:54:12.760Z,100.00
2023-10-10T00:56:44.934Z,100.00
2023-10-10T00:59:12.421Z,100.00
2023-10-10T01:01:41.824Z,100.00
2023-10-10T01:04:10.982Z,100.00
2023-10-10T01:06:40.178Z,100.00
2023-10-10T01:09:22.863Z,100.00
2023-10-10T01:11:50.347Z,100.00
2023-10-10T01:14:20.204Z,100.00
2023-10-10T01:16:48.981Z,100.00
2023-10-10T01:19:19.045Z,100.00
2023-10-10T01:21:51.983Z,100.00
2023-10-10T01:24:19.150Z,100.00
2023-10-10T01:26:46.624Z,100.00
2023-10-10T01:29:26.471Z,100.00
2023-10-10T01:31:54.708Z,100.00
2023-10-10T01:34:40.962Z,100.00
2023-10-10T01:37:28.573Z,100.00
2023-10-10T01:40:20.739Z,100.00
2023-10-10T01:42:55.617Z,100.00
2023-10-10T01:45:24.819Z,100.00
2023-10-10T01:47:58.381Z,100.00
2023-10-10T01:50:28.277Z,100.00
2023-10-10T01:52:57.422Z,100.00
2023-10-10T01:55:25.863Z,100.00
2023-10-10T01:57:54.221Z,100.00
2023-10-10T02:00:28.283Z,100.00
2023-10-10T02:02:58.334Z,100.00
2023-10-10T02:05:37.995Z,100.00
2023-10-10T02:08:10.989Z,100.00
2023-10-10T02:10:44.517Z,100.00
2023-10-10T02:13:12.637Z,100.00
2023-10-10T02:15:40.749Z,100.00
2023-10-10T02:18:13.606Z,100.00
2023-10-10T02:20:46.894Z,100.00
2023-10-10T02:23:33.146Z,100.00
2023-10-10T02:26:04.656Z,100.00
2023-10-10T02:28:45.098Z,100.00
2023-10-10T02:31:14.115Z,100.00
2023-10-10T02:33:49.809Z,100.00
2023-10-10T02:36:17.512Z,100.00
2023-10-10T02:38:56.971Z,100.00
2023-10-10T02:41:24.098Z,100.00
2023-10-10T02:43:57.707Z,100.00
2023-10-10T02:46:49.836Z,100.00
2023-10-10T02:49:28.449Z,100.00
2023-10-10T02:51:58.659Z,100.00
2023-10-10T02:54:27.201Z,100.00
2023-10-10T02:56:58.646Z,100.00
2023-10-10T02:59:32.776Z,100.00
2023-10-10T03:02:20.354Z,100.00
2023-10-10T03:05:03.808Z,100.00
2023-10-10T03:07:31.366Z,100.00
2023-10-10T03:10:05.012Z,100.00
2023-10-10T03:12:32.917Z,100.00
2023-10-10T03:15:35.350Z,100.00
2023-10-10T03:18:11.081Z,100.00
2023-10-10T03:20:38.059Z,100.00
2023-10-10T03:23:08.577Z,100.00
2023-10-10T03:25:47.981Z,100.00
2023-10-10T03:28:41.565Z,100.00
2023-10-10T03:31:34.389Z,100.00
2023-10-10T03:34:19.982Z,100.00
2023-10-10T03:37:03.663Z,100.00
2023-10-10T03:39:52.280Z,100.00
2023-10-10T03:42:37.817Z,100.00
2023-10-10T03:45:23.537Z,100.00
2023-10-10T03:48:09.119Z,100.00
2023-10-10T03:51:02.775Z,100.00
2023-10-10T03:53:48.794Z,100.00
2023-10-10T03:56:38.368Z,100.00
2023-10-10T03:59:25.317Z,100.00
2023-10-10T04:02:12.782Z,100.00
2023-10-10T04:05:08.747Z,100.00
2023-10-10T04:08:05.549Z,100.00
2023-10-10T04:10:51.084Z,100.00
2023-10-10T04:13:36.437Z,100.00
2023-10-10T04:16:26.999Z,100.00
2023-10-10T04:19:12.153Z,100.00
2023-10-10T04:21:57.553Z,100.00
2023-10-10T04:24:42.935Z,100.00
2023-10-10T04:27:28.500Z,100.00
2023-10-10T04:30:13.877Z,100.00
2023-10-10T04:32:59.548Z,100.00
2023-10-10T04:35:44.893Z,100.00
2023-10-10T04:38:30.376Z,100.00
2023-10-10T04:41:15.796Z,100.00
2023-10-10T04:44:00.953Z,100.00
2023-10-10T04:46:46.201Z,100.00
2023-10-10T04:49:31.728Z,100.00
2023-10-10T04:52:17.277Z,100.00
2023-10-10T04:55:02.704Z,100.00
2023-10-10T04:57:48.012Z,100.00
2023-10-10T05:00:33.887Z,100.00
2023-10-10T05:03:19.569Z,100.00
2023-10-10T05:06:17.110Z,100.00
2023-10-10T05:09:03.129Z,100.00
2023-10-10T05:11:49.042Z,100.00
2023-10-10T05:14:34.629Z,100.00
2023-10-10T05:17:20.416Z,100.00
2023-10-10T05:20:05.757Z,100.00
2023-10-10T05:22:51.249Z,100.00
2023-10-10T05:25:26.897Z,100.00
2023-10-10T05:27:57.674Z,100.00
2023-10-10T05:30:24.615Z,100.00
2023-10-10T05:33:05.043Z,100.00
2023-10-10T05:35:38.224Z,100.00
2023-10-10T05:38:08.478Z,100.00
2023-10-10T05:40:35.892Z,100.00
2023-10-10T05:43:10.420Z,100.00
2023-10-10T05:45:37.809Z,100.00
2023-10-10T05:48:08.652Z,100.00
2023-10-10T05:50:35.781Z,100.00
2023-10-10T05:53:04.954Z,100.00
2023-10-10T05:55:34.965Z,100.00
2023-10-10T05:58:06.437Z,100.00
2023-10-10T06:00:37.988Z,100.00
2023-10-10T06:03:08.390Z,100.00
2023-10-10T06:05:36.192Z,100.00
2023-10-10T06:08:03.585Z,100.00
2023-10-10T06:10:34.180Z,100.00
2023-10-10T06:13:07.991Z,100.00
2023-10-10T06:15:36.292Z,100.00
2023-10-10T06:18:19.515Z,100.00
2023-10-10T06:21:06.778Z,100.00
2023-10-10T06:23:36.761Z,100.00
2023-10-10T06:26:05.506Z,100.00
2023-10-10T06:28:46.276Z,100.00
2023-10-10T06:31:34.817Z,100.00
2023-10-10T06:34:20.336Z,100.00
2023-10-10T06:36:49.221Z,100.00
2023-10-10T06:39:16.380Z,100.00
2023-10-10T06:41:47.956Z,100.00
2023-10-10T06:44:15.954Z,100.00
2023-10-10T06:46:43.849Z,100.00
2023-10-10T06:49:13.497Z,100.00
2023-10-10T06:51:41.199Z,100.00
2023-10-10T06:54:10.093Z,100.00
2023-10-10T06:56:46.508Z,100.00
2023-10-10T06:59:22.029Z,100.00
2023-10-10T07:01:49.856Z,100.00
2023-10-10T07:04:17.853Z,100.00
2023-10-10T07:06:49.032Z,100.00
2023-10-10T07:09:16.365Z,100.00
2023-10-10T07:11:43.744Z,100.00
2023-10-10T07:14:17.386Z,100.00
2023-10-10T07:16:44.720Z,100.00
2023-10-10T07:19:23.303Z,100.00
2023-10-10T07:21:52.792Z,100.00
2023-10-10T07:24:19.674Z,100.00
2023-10-10T07:26:59.829Z,100.00
2023-10-10T07:29:31.860Z,100.00
2023-10-10T07:32:17.133Z,100.00
2023-10-10T07:34:50.616Z,100.00
2023-10-10T07:37:18.770Z,100.00
2023-10-10T07:40:04.549Z,100.00
2023-10-10T07:42:32.323Z,100.00
2023-10-10T07:44:59.624Z,100.00
2023-10-10T07:47:27.984Z,100.00
2023-10-10T07:50:00.834Z,100.00
2023-10-10T07:52:27.895Z,100.00
2023-10-10T07:54:55.378Z,100.00
2023-10-10T07:57:29.652Z,100.00
2023-10-10T08:00:00.022Z,100.00
2023-10-10T08:02:33.149Z,100.00
2023-10-10T08:05:02.287Z,100.00
2023-10-10T08:07:30.012Z,100.00
2023-10-10T08:10:15.828Z,100.00
2023-10-10T08:12:43.717Z,100.00
2023-10-10T08:15:26.824Z,100.00
2023-10-10T08:17:56.389Z,100.00
2023-10-10T08:20:35.458Z,100.00
2023-10-10T08:23:05.881Z,100.00
2023-10-10T08:25:34.087Z,100.00
2023-10-10T08:28:01.618Z,100.00
2023-10-10T08:30:28.693Z,100.00
2023-10-10T08:32:59.808Z,100.00
2023-10-10T08:35:31.330Z,100.00
2023-10-10T08:37:58.601Z,100.00
2023-10-10T08:40:32.714Z,100.00
2023-10-10T08:43:00.544Z,100.00
2023-10-10T08:45:40.568Z,100.00
2023-10-10T08:48:14.277Z,100.00
2023-10-10T08:50:42.118Z,100.00
2023-10-10T08:53:15.487Z,100.00
2023-10-10T08:55:43.187Z,100.00
2023-10-10T08:58:11.844Z,100.00
2023-10-10T09:00:39.286Z,100.00
2023-10-10T09:03:09.556Z,100.00
2023-10-10T09:05:37.628Z,100.00
2023-10-10T09:08:16.063Z,100.00
2023-10-10T09:10:51.252Z,100.00
2023-10-10T09:13:18.504Z,100.00
2023-10-10T09:15:55.665Z,100.00
2023-10-10T09:18:24.203Z,100.00
2023-10-10T09:20:52.027Z,100.00
2023-10-10T09:23:29.843Z,100.00
2023-10-10T09:26:20.544Z,100.00
2023-10-10T09:28:56.897Z,100.00
2023-10-10T09:31:32.576Z,100.00
2023-10-10T09:34:04.557Z,100.00
2023-10-10T09:36:39.161Z,100.00
2023-10-10T09:39:10.692Z,100.00
2023-10-10T09:41:39.124Z,100.00
2023-10-10T09:44:25.146Z,100.00
2023-10-10T09:47:07.100Z,100.00
2023-10-10T09:49:52.558Z,100.00
2023-10-10T09:52:42.640Z,100.00
2023-10-10T09:55:13.937Z,100.00
2023-10-10T09:58:08.426Z,100.00
2023-10-10T10:00:39.614Z,100.00
2023-10-10T10:03:29.496Z,100.00
2023-10-10T10:06:29.290Z,100.00
2023-10-10T10:09:20.961Z,100.00
2023-10-10T10:12:31.977Z,100.00
2023-10-10T10:15:19.737Z,100.00
2023-10-10T10:18:40.845Z,100.00
2023-10-10T10:21:12.213Z,100.00
2023-10-10T10:23:47.666Z,100.00
2023-10-10T10:26:32.875Z,100.00
2023-10-10T10:29:09.612Z,100.00
2023-10-10T10:31:40.812Z,100.00
2023-10-10T10:34:11.711Z,100.00
2023-10-10T10:36:46.964Z,100.00
2023-10-10T10:39:22.481Z,100.00
2023-10-10T10:41:54.813Z,100.00
2023-10-10T10:44:46.250Z,100.00
2023-10-10T10:47:36.087Z,100.00
2023-10-10T10:50:05.508Z,100.00
2023-10-10T10:52:44.924Z,100.00
2023-10-10T10:55:28.869Z,100.00
2023-10-10T10:58:21.623Z,100.00
2023-10-10T11:00:57.791Z,100.00
2023-10-10T11:03:36.249Z,100.00
2023-10-10T11:06:07.916Z,100.00
2023-10-10T11:11:29.016Z,100.00
2023-10-10T11:14:11.010Z,100.00
2023-10-10T11:16:39.405Z,100.00
2023-10-10T11:19:13.851Z,100.00
2023-10-10T11:21:50.045Z,100.00
2023-10-10T11:24:25.202Z,100.00
2023-10-10T11:27:07.308Z,100.00
2023-10-10T11:29:43.957Z,100.00
2023-10-10T11:32:14.140Z,100.00
2023-10-10T11:34:44.336Z,100.00
2023-10-10T11:37:24.760Z,100.00
2023-10-10T11:39:59.117Z,100.00
2023-10-10T11:42:34.445Z,100.00
2023-10-10T11:45:08.540Z,100.00
2023-10-10T11:47:45.991Z,100.00
2023-10-10T11:50:14.339Z,100.00
2023-10-10T11:53:01.543Z,100.00
2023-10-10T11:55:29.592Z,100.00
2023-10-10T11:58:07.607Z,99.91
2023-10-10T12:00:43.564Z,100.00
2023-10-10T12:03:19.461Z,100.00
2023-10-10T12:05:52.883Z,99.80
2023-10-10T12:08:26.196Z,100.00
2023-10-10T12:10:53.964Z,99.74
2023-10-10T12:13:34.507Z,100.00
2023-10-10T12:16:08.854Z,100.00
2023-10-10T12:18:36.561Z,99.93
2023-10-10T12:21:04.320Z,98.07
2023-10-10T12:23:32.815Z,99.67
2023-10-10T12:26:20.501Z,99.54
2023-10-10T12:28:48.654Z,96.75
2023-10-10T12:31:18.697Z,97.52
2023-10-10T12:33:54.936Z,97.78
2023-10-10T12:36:24.244Z,96.60
2023-10-10T12:38:51.148Z,97.89
2023-10-10T12:41:22.210Z,97.81
2023-10-10T12:43:52.514Z,97.42
2023-10-10T12:46:22.328Z,97.15
2023-10-10T12:48:52.900Z,96.99
2023-10-10T12:51:23.850Z,96.54
2023-10-10T12:54:01.155Z,96.76
2023-10-10T12:56:29.272Z,94.64
2023-10-10T12:59:18.386Z,96.08
2023-10-10T13:01:48.783Z,96.34
2023-10-10T13:04:19.028Z,94.84
2023-10-10T13:06:52.838Z,95.79
2023-10-10T13:09:20.449Z,94.83
2023-10-10T13:11:48.999Z,95.70
2023-10-10T13:14:18.507Z,97.32
2023-10-10T13:16:45.451Z,95.93
2023-10-10T13:19:13.114Z,94.48
2023-10-10T13:21:41.803Z,95.09
2023-10-10T13:24:13.317Z,94.29
2023-10-10T13:26:43.157Z,93.99
2023-10-10T13:29:10.035Z,94.12
2023-10-10T13:31:39.309Z,92.01
2023-10-10T13:34:06.320Z,89.09
2023-10-10T13:36:33.904Z,88.89
2023-10-10T13:39:06.833Z,89.75
2023-10-10T13:41:37.244Z,90.04
2023-10-10T13:44:04.869Z,89.84
2023-10-10T13:46:39.147Z,88.53
2023-10-10T13:49:09.973Z,89.03
2023-10-10T13:51:43.133Z,87.89
2023-10-10T13:54:09.981Z,85.63
2023-10-10T13:56:36.979Z,85.77
2023-10-10T13:59:04.025Z,86.11
2023-10-10T14:01:31.345Z,83.21
2023-10-10T14:04:05.985Z,82.72
2023-10-10T14:06:46.642Z,78.78
2023-10-10T14:09:23.098Z,82.47
2023-10-10T14:11:58.449Z,81.74
2023-10-10T14:14:25.546Z,81.62
2023-10-10T14:16:52.603Z,81.85
2023-10-10T14:19:19.717Z,83.78
2023-10-10T14:21:48.869Z,84.50
2023-10-10T14:24:16.333Z,84.14
2023-10-10T14:26:46.320Z,85.69
2023-10-10T14:29:14.552Z,86.61
2023-10-10T14:31:46.454Z,86.22
2023-10-10T14:34:22.076Z,87.73
2023-10-10T14:36:52.666Z,86.03
2023-10-10T14:39:29.796Z,86.72
2023-10-10T14:42:00.467Z,88.01
2023-10-10T14:44:29.422Z,86.35
2023-10-10T14:46:59.166Z,86.63
2023-10-10T14:49:32.609Z,87.22
2023-10-10T14:52:07.735Z,86.65
2023-10-10T14:54:50.044Z,86.84
2023-10-10T14:57:25.694Z,87.72
2023-10-10T14:59:56.894Z,87.19
2023-10-10T15:02:27.728Z,87.26
2023-10-10T15:04:55.839Z,88.15
2023-10-10T15:07:23.089Z,88.95
2023-10-10T15:09:49.944Z,88.79
2023-10-10T15:12:16.776Z,88.86
2023-10-10T15:14:44.079Z,88.79
2023-10-10T15:17:11.297Z,90.92
2023-10-10T15:19:42.531Z,91.46
2023-10-10T15:22:16.835Z,92.44
2023-10-10T15:24:53.634Z,93.11
2023-10-10T15:27:20.693Z,93.13
2023-10-10T15:29:47.592Z,93.27
2023-10-10T15:32:14.613Z,92.24
2023-10-10T15:34:42.707Z,94.54
2023-10-10T15:37:16.124Z,94.44
2023-10-10T15:39:43.191Z,95.21
2023-10-10T15:42:12.155Z,95.67
2023-10-10T15:44:42.487Z,96.05
2023-10-10T15:47:09.981Z,94.38
2023-10-10T15:49:43.412Z,95.70
2023-10-10T15:52:19.656Z,96.66
2023-10-10T15:54:51.920Z,96.56
2023-10-10T15:57:24.064Z,98.03
2023-10-10T15:59:52.597Z,97.47
2023-10-10T16:02:33.759Z,98.43
2023-10-10T16:05:05.267Z,100.00
2023-10-10T16:07:35.930Z,99.14
2023-10-10T16:10:08.983Z,97.84
2023-10-10T16:12:45.386Z,98.02
2023-10-10T16:15:30.608Z,98.50
2023-10-10T16:17:58.769Z,98.71
2023-10-10T16:20:28.766Z,98.82
2023-10-10T16:22:56.936Z,100.00
2023-10-10T16:25:25.390Z,99.95
2023-10-10T16:27:55.243Z,100.00
2023-10-10T16:30:24.906Z,98.76
2023-10-10T16:32:57.064Z,99.82
2023-10-10T16:35:26.843Z,100.00
2023-10-10T16:38:00.774Z,100.00
2023-10-10T16:40:33.065Z,100.00
2023-10-10T16:43:00.838Z,100.00
2023-10-10T16:45:34.225Z,100.00
2023-10-10T16:48:09.535Z,100.00
2023-10-10T16:50:37.073Z,100.00
2023-10-10T16:53:11.440Z,100.00
2023-10-10T16:55:42.338Z,100.00
2023-10-10T16:58:15.864Z,100.00
2023-10-10T17:00:48.537Z,100.00
2023-10-10T17:03:16.430Z,100.00
2023-10-10T17:05:52.227Z,100.00
2023-10-10T17:08:19.964Z,100.00
2023-10-10T17:11:00.933Z,100.00
2023-10-10T17:13:27.791Z,100.00
2023-10-10T17:16:01.857Z,100.00
2023-10-10T17:18:38.114Z,100.00
2023-10-10T17:21:08.328Z,100.00
2023-10-10T17:23:39.504Z,100.00
2023-10-10T17:26:20.287Z,100.00
2023-10-10T17:28:49.498Z,100.00
2023-10-10T17:31:21.187Z,100.00
2023-10-10T17:33:48.299Z,100.00
2023-10-10T17:36:18.013Z,100.00
2023-10-10T17:38:48.536Z,100.00
2023-10-10T17:41:19.370Z,100.00
2023-10-10T17:43:55.470Z,100.00
2023-10-10T17:46:24.941Z,100.00
2023-10-10T17:48:55.645Z,100.00
2023-10-10T17:51:33.339Z,100.00
2023-10-10T17:54:00.833Z,100.00
2023-10-10T17:56:32.971Z,100.00
2023-10-10T17:59:06.910Z,100.00
2023-10-10T18:01:35.453Z,100.00
2023-10-10T18:04:06.398Z,100.00
2023-10-10T18:06:37.890Z,100.00
2023-10-10T18:09:17.887Z,100.00
2023-10-10T18:11:44.852Z,100.00
2023-10-10T18:14:16.420Z,100.00
2023-10-10T18:16:51.825Z,100.00
2023-10-10T18:19:23.319Z,100.00
2023-10-10T18:21:54.754Z,100.00
2023-10-10T18:24:29.349Z,100.00
2023-10-10T18:26:59.193Z,100.00
2023-10-10T18:29:29.773Z,100.00
2023-10-10T18:32:01.692Z,100.00
2023-10-10T18:34:33.049Z,100.00
2023-10-10T18:37:04.948Z,100.00
2023-10-10T18:39:39.350Z,100.00
2023-10-10T18:42:10.807Z,100.00
2023-10-10T18:44:42.460Z,100.00
2023-10-10T18:47:15.349Z,100.00
2023-10-10T18:49:51.840Z,100.00
2023-10-10T18:52:23.763Z,100.00
2023-10-10T18:54:54.655Z,100.00
2023-10-10T18:57:30.959Z,100.00
2023-10-10T19:00:07.245Z,100.00
2023-10-10T19:02:34.253Z,100.00
2023-10-10T19:05:03.884Z,100.00
2023-10-10T19:07:36.084Z,100.00
2023-10-10T19:10:08.081Z,100.00
2023-10-10T19:12:35.966Z,100.00
2023-10-10T19:15:13.905Z,100.00
2023-10-10T19:17:44.431Z,100.00
2023-10-10T19:20:19.236Z,100.00
2023-10-10T19:22:50.591Z,100.00
2023-10-10T19:25:18.189Z,100.00
2023-10-10T19:27:55.744Z,100.00
2023-10-10T19:30:34.818Z,100.00
2023-10-10T19:33:02.407Z,100.00
2023-10-10T19:35:29.496Z,100.00
2023-10-10T19:37:56.552Z,100.00
2023-10-10T19:40:29.334Z,100.00
2023-10-10T19:42:57.331Z,100.00
2023-10-10T19:45:27.664Z,100.00
2023-10-10T19:48:04.797Z,100.00
2023-10-10T19:50:45.902Z,100.00
2023-10-10T19:53:16.972Z,100.00
2023-10-10T19:55:50.281Z,100.00
2023-10-10T19:58:17.313Z,100.00
2023-10-10T20:00:46.905Z,100.00
2023-10-10T20:03:15.325Z,100.00
2023-10-10T20:05:44.209Z,100.00
2023-10-10T20:08:15.805Z,100.00
2023-10-10T20:10:50.715Z,100.00
2023-10-10T20:13:22.773Z,100.00
2023-10-10T20:15:53.937Z,100.00
2023-10-10T20:18:26.320Z,100.00
2023-10-10T20:21:07.849Z,100.00
2023-10-10T20:23:39.413Z,100.00
2023-10-10T20:26:20.420Z,100.00
2023-10-10T20:28:54.362Z,100.00
2023-10-10T20:31:22.947Z,100.00
2023-10-10T20:33:50.160Z,100.00
2023-10-10T20:36:24.998Z,100.00
2023-10-10T20:38:51.957Z,100.00
2023-10-10T20:41:18.801Z,100.00
2023-10-10T20:43:45.754Z,100.00
2023-10-10T20:46:22.719Z,100.00
2023-10-10T20:48:54.937Z,100.00
2023-10-10T20:51:28.463Z,100.00
2023-10-10T20:54:05.134Z,100.00
2023-10-10T20:56:34.478Z,100.00
2023-10-10T20:59:04.783Z,100.00
2023-10-10T21:01:38.858Z,100.00
2023-10-10T21:04:10.021Z,100.00
2023-10-10T21:06:40.640Z,100.00
2023-10-10T21:09:12.192Z,100.00
2023-10-10T21:11:43.076Z,100.00
2023-10-10T21:14:13.353Z,100.00
2023-10-10T21:16:46.155Z,100.00
2023-10-10T21:19:18.099Z,100.00
2023-10-10T21:21:48.744Z,100.00
2023-10-10T21:24:19.084Z,100.00
2023-10-10T21:26:53.226Z,100.00
2023-10-10T21:29:24.544Z,100.00
2023-10-10T21:31:55.207Z,100.00
2023-10-10T21:34:27.570Z,100.00
2023-10-10T21:36:58.206Z,100.00
2023-10-10T21:39:29.736Z,100.00
2023-10-10T21:42:00.672Z,100.00
2023-10-10T21:44:34.620Z,100.00
2023-10-10T21:47:06.368Z,100.00
2023-10-10T21:49:38.460Z,100.00
2023-10-10T21:52:19.001Z,100.00
2023-10-10T21:54:49.232Z,100.00
2023-10-10T21:57:18.864Z,100.00
2023-10-10T21:59:56.420Z,100.00
2023-10-10T22:02:27.464Z,100.00
2023-10-10T22:05:01.296Z,100.00
2023-10-10T22:07:36.421Z,100.00
2023-10-10T22:10:08.497Z,100.00
2023-10-10T22:12:39.606Z,100.00
2023-10-10T22:15:12.354Z,100.00
2023-10-10T22:17:43.981Z,100.00
2023-10-10T22:20:16.786Z,100.00
2023-10-10T22:22:45.916Z,100.00
2023-10-10T22:25:19.853Z,100.00
2023-10-10T22:27:49.995Z,100.00
2023-10-10T22:30:27.084Z,100.00
2023-10-10T22:32:55.606Z,100.00
2023-10-10T22:35:28.132Z,100.00
2023-10-10T22:37:57.506Z,100.00
2023-10-10T22:40:35.395Z,100.00
2023-10-10T22:43:06.121Z,100.00
2023-10-10T22:45:37.691Z,100.00
2023-10-10T22:48:15.878Z,100.00
2023-10-10T22:50:44.224Z,100.00
2023-10-10T22:53:17.627Z,100.00
2023-10-10T22:55:47.847Z,100.00
2023-10-10T22:58:21.380Z,100.00
2023-10-10T23:00:49.895Z,100.00
2023-10-10T23:03:21.163Z,100.00
2023-10-10T23:05:53.767Z,100.00
2023-10-10T23:08:26.200Z,100.00
2023-10-10T23:10:56.890Z,100.00
2023-10-10T23:13:35.594Z,100.00
2023-10-10T23:16:05.844Z,100.00
2023-10-10T23:18:37.390Z,100.00
2023-10-10T23:21:11.350Z,100.00
2023-10-10T23:23:42.210Z,100.00
2023-10-10T23:26:18.005Z,100.00
2023-10-10T23:28:45.442Z,100.00
2023-10-10T23:31:17.114Z,100.00
2023-10-10T23:33:46.498Z,100.00
2023-10-10T23:36:20.122Z,100.00
2023-10-10T23:38:50.634Z,100.00
2023-10-10T23:41:23.563Z,100.00
2023-10-10T23:43:54.324Z,100.00
2023-10-10T23:46:27.963Z,100.00
2023-10-10T23:48:58.759Z,100.00
2023-10-10T23:51:32.877Z,100.00
2023-10-10T23:54:00.509Z,100.00
2023-10-10T23:56:35.361Z,100.00
2023-10-10T23:59:03.657Z,100.00
